sensor_id;sensor_type;location;lat;lon;timestamp;temperature;humidity
51615;DHT22;37695;52.960;6.188;2022-08-27T00:00:15;14.30;99.90
51615;DHT22;37695;52.960;6.188;2022-08-27T00:02:42;14.30;99.90
51615;DHT22;37695;52.960;6.188;2022-08-27T00:05:09;14.30;99.90
51615;DHT22;37695;52.960;6.188;2022-08-27T00:07:35;14.20;99.90
51615;DHT22;37695;52.960;6.188;2022-08-27T00:10:01;14.00;99.90
51615;DHT22;37695;52.960;6.188;2022-08-27T00:12:26;14.10;99.90
51615;DHT22;37695;52.960;6.188;2022-08-27T00:14:52;14.10;99.90
51615;DHT22;37695;52.960;6.188;2022-08-27T00:17:18;13.90;99.90
51615;DHT22;37695;52.960;6.188;2022-08-27T00:19:43;13.90;99.90
51615;DHT22;37695;52.960;6.188;2022-08-27T00:22:09;13.80;99.90
51615;DHT22;37695;52.960;6.188;2022-08-27T00:24:36;13.80;99.90
51615;DHT22;37695;52.960;6.188;2022-08-27T00:27:02;13.80;99.90
51615;DHT22;37695;52.960;6.188;2022-08-27T00:29:29;13.80;99.90
51615;DHT22;37695;52.960;6.188;2022-08-27T00:31:54;13.80;99.90
51615;DHT22;37695;52.960;6.188;2022-08-27T00:34:21;13.70;99.90
51615;DHT22;37695;52.960;6.188;2022-08-27T00:36:47;13.70;99.90
51615;DHT22;37695;52.960;6.188;2022-08-27T00:39:13;13.60;99.90
51615;DHT22;37695;52.960;6.188;2022-08-27T00:41:39;13.60;99.90
51615;DHT22;37695;52.960;6.188;2022-08-27T00:44:05;13.60;99.90
51615;DHT22;37695;52.960;6.188;2022-08-27T00:46:41;13.60;99.90
51615;DHT22;37695;52.960;6.188;2022-08-27T00:51:54;13.50;99.90
51615;DHT22;37695;52.960;6.188;2022-08-27T00:54:21;13.50;99.90
51615;DHT22;37695;52.960;6.188;2022-08-27T00:56:47;13.60;99.90
51615;DHT22;37695;52.960;6.188;2022-08-27T00:59:15;13.60;99.90
51615;DHT22;37695;52.960;6.188;2022-08-27T01:01:43;13.60;99.90
51615;DHT22;37695;52.960;6.188;2022-08-27T01:04:28;13.50;99.90
51615;DHT22;37695;52.960;6.188;2022-08-27T01:06:54;13.40;99.90
51615;DHT22;37695;52.960;6.188;2022-08-27T01:09:20;13.40;99.90
51615;DHT22;37695;52.960;6.188;2022-08-27T01:11:47;13.60;99.90
51615;DHT22;37695;52.960;6.188;2022-08-27T01:14:13;13.30;99.90
51615;DHT22;37695;52.960;6.188;2022-08-27T01:16:44;13.30;99.90
51615;DHT22;37695;52.960;6.188;2022-08-27T01:22:01;13.10;99.90
51615;DHT22;37695;52.960;6.188;2022-08-27T01:24:38;13.20;99.90
51615;DHT22;37695;52.960;6.188;2022-08-27T01:27:07;13.20;99.90
51615;DHT22;37695;52.960;6.188;2022-08-27T01:29:35;13.20;99.90
51615;DHT22;37695;52.960;6.188;2022-08-27T01:32:07;13.20;99.90
51615;DHT22;37695;52.960;6.188;2022-08-27T01:34:35;13.20;99.90
51615;DHT22;37695;52.960;6.188;2022-08-27T01:37:01;13.20;99.90
51615;DHT22;37695;52.960;6.188;2022-08-27T01:39:26;13.10;99.90
51615;DHT22;37695;52.960;6.188;2022-08-27T01:41:52;13.10;99.90
51615;DHT22;37695;52.960;6.188;2022-08-27T01:44:18;13.10;99.90
51615;DHT22;37695;52.960;6.188;2022-08-27T01:46:44;13.10;99.90
51615;DHT22;37695;52.960;6.188;2022-08-27T01:49:10;13.10;99.90
51615;DHT22;37695;52.960;6.188;2022-08-27T01:51:35;13.10;99.90
51615;DHT22;37695;52.960;6.188;2022-08-27T01:54:01;13.20;99.90
51615;DHT22;37695;52.960;6.188;2022-08-27T01:56:27;13.20;99.90
51615;DHT22;37695;52.960;6.188;2022-08-27T01:58:53;13.20;99.90
51615;DHT22;37695;52.960;6.188;2022-08-27T02:01:18;13.30;99.90
51615;DHT22;37695;52.960;6.188;2022-08-27T02:03:44;13.20;99.90
51615;DHT22;37695;52.960;6.188;2022-08-27T02:06:12;13.10;99.90
51615;DHT22;37695;52.960;6.188;2022-08-27T02:08:38;13.10;99.90
51615;DHT22;37695;52.960;6.188;2022-08-27T02:11:04;13.10;99.90
51615;DHT22;37695;52.960;6.188;2022-08-27T02:13:30;13.10;99.90
51615;DHT22;37695;52.960;6.188;2022-08-27T02:15:56;13.00;99.90
51615;DHT22;37695;52.960;6.188;2022-08-27T02:18:22;13.00;99.90
51615;DHT22;37695;52.960;6.188;2022-08-27T02:20:47;12.90;99.90
51615;DHT22;37695;52.960;6.188;2022-08-27T02:23:14;12.90;99.90
51615;DHT22;37695;52.960;6.188;2022-08-27T02:25:40;12.90;99.90
51615;DHT22;37695;52.960;6.188;2022-08-27T02:28:06;12.90;99.90
51615;DHT22;37695;52.960;6.188;2022-08-27T02:30:33;12.90;99.90
51615;DHT22;37695;52.960;6.188;2022-08-27T02:33:03;12.90;99.90
51615;DHT22;37695;52.960;6.188;2022-08-27T02:35:34;12.90;99.90
51615;DHT22;37695;52.960;6.188;2022-08-27T02:38:01;13.00;99.90
51615;DHT22;37695;52.960;6.188;2022-08-27T02:40:27;12.90;99.90
51615;DHT22;37695;52.960;6.188;2022-08-27T02:42:53;12.90;99.90
51615;DHT22;37695;52.960;6.188;2022-08-27T02:45:19;12.80;99.90
51615;DHT22;37695;52.960;6.188;2022-08-27T02:47:45;12.80;99.90
51615;DHT22;37695;52.960;6.188;2022-08-27T02:50:12;12.70;99.90
51615;DHT22;37695;52.960;6.188;2022-08-27T02:52:38;12.80;99.90
51615;DHT22;37695;52.960;6.188;2022-08-27T02:55:05;12.80;99.90
51615;DHT22;37695;52.960;6.188;2022-08-27T02:57:31;12.70;99.90
51615;DHT22;37695;52.960;6.188;2022-08-27T02:59:56;12.90;99.90
51615;DHT22;37695;52.960;6.188;2022-08-27T03:02:22;12.70;99.90
51615;DHT22;37695;52.960;6.188;2022-08-27T03:04:48;12.70;99.90
51615;DHT22;37695;52.960;6.188;2022-08-27T03:07:14;12.60;99.90
51615;DHT22;37695;52.960;6.188;2022-08-27T03:09:40;12.60;99.90
51615;DHT22;37695;52.960;6.188;2022-08-27T03:12:05;12.60;99.90
51615;DHT22;37695;52.960;6.188;2022-08-27T03:14:31;12.60;99.90
51615;DHT22;37695;52.960;6.188;2022-08-27T03:16:57;12.70;99.90
51615;DHT22;37695;52.960;6.188;2022-08-27T03:19:46;12.60;99.90
51615;DHT22;37695;52.960;6.188;2022-08-27T03:22:12;12.60;99.90
51615;DHT22;37695;52.960;6.188;2022-08-27T03:24:38;12.60;99.90
51615;DHT22;37695;52.960;6.188;2022-08-27T03:27:08;12.60;99.90
51615;DHT22;37695;52.960;6.188;2022-08-27T03:29:35;12.60;99.90
51615;DHT22;37695;52.960;6.188;2022-08-27T03:32:00;12.70;99.90
51615;DHT22;37695;52.960;6.188;2022-08-27T03:34:26;12.60;99.90
51615;DHT22;37695;52.960;6.188;2022-08-27T03:36:52;12.60;99.90
51615;DHT22;37695;52.960;6.188;2022-08-27T03:39:18;12.50;99.90
51615;DHT22;37695;52.960;6.188;2022-08-27T03:41:44;12.50;99.90
51615;DHT22;37695;52.960;6.188;2022-08-27T03:44:09;12.50;99.90
51615;DHT22;37695;52.960;6.188;2022-08-27T03:46:36;12.50;99.90
51615;DHT22;37695;52.960;6.188;2022-08-27T03:49:02;12.50;99.90
51615;DHT22;37695;52.960;6.188;2022-08-27T03:51:27;12.40;99.90
51615;DHT22;37695;52.960;6.188;2022-08-27T03:53:53;12.50;99.90
51615;DHT22;37695;52.960;6.188;2022-08-27T03:56:18;12.40;99.90
51615;DHT22;37695;52.960;6.188;2022-08-27T03:58:44;12.50;99.90
51615;DHT22;37695;52.960;6.188;2022-08-27T04:01:10;12.50;99.90
51615;DHT22;37695;52.960;6.188;2022-08-27T04:03:36;12.50;99.90
51615;DHT22;37695;52.960;6.188;2022-08-27T04:06:02;12.60;99.90
51615;DHT22;37695;52.960;6.188;2022-08-27T04:08:28;12.60;99.90
51615;DHT22;37695;52.960;6.188;2022-08-27T04:10:55;12.70;99.90
51615;DHT22;37695;52.960;6.188;2022-08-27T04:13:21;12.60;99.90
51615;DHT22;37695;52.960;6.188;2022-08-27T04:15:49;12.60;99.90
51615;DHT22;37695;52.960;6.188;2022-08-27T04:18:15;12.60;99.90
51615;DHT22;37695;52.960;6.188;2022-08-27T04:20:46;12.60;99.90
51615;DHT22;37695;52.960;6.188;2022-08-27T04:23:11;12.60;99.90
51615;DHT22;37695;52.960;6.188;2022-08-27T04:25:39;12.60;99.90
51615;DHT22;37695;52.960;6.188;2022-08-27T04:28:05;12.60;99.90
51615;DHT22;37695;52.960;6.188;2022-08-27T04:30:31;12.60;99.90
51615;DHT22;37695;52.960;6.188;2022-08-27T04:32:57;12.70;99.90
51615;DHT22;37695;52.960;6.188;2022-08-27T04:35:23;12.70;99.90
51615;DHT22;37695;52.960;6.188;2022-08-27T04:37:49;12.70;99.90
51615;DHT22;37695;52.960;6.188;2022-08-27T04:40:15;12.70;99.90
51615;DHT22;37695;52.960;6.188;2022-08-27T04:42:41;12.80;99.90
51615;DHT22;37695;52.960;6.188;2022-08-27T04:45:07;12.70;99.90
51615;DHT22;37695;52.960;6.188;2022-08-27T04:47:33;12.70;99.90
51615;DHT22;37695;52.960;6.188;2022-08-27T04:49:59;12.70;99.90
51615;DHT22;37695;52.960;6.188;2022-08-27T04:52:25;12.90;99.90
51615;DHT22;37695;52.960;6.188;2022-08-27T04:54:50;12.80;99.90
51615;DHT22;37695;52.960;6.188;2022-08-27T04:57:16;12.70;99.90
51615;DHT22;37695;52.960;6.188;2022-08-27T04:59:42;12.70;99.90
51615;DHT22;37695;52.960;6.188;2022-08-27T05:02:08;12.70;99.90
51615;DHT22;37695;52.960;6.188;2022-08-27T05:04:37;12.70;99.90
51615;DHT22;37695;52.960;6.188;2022-08-27T05:07:05;12.80;99.90
51615;DHT22;37695;52.960;6.188;2022-08-27T05:09:30;12.80;99.90
51615;DHT22;37695;52.960;6.188;2022-08-27T05:11:56;12.80;99.90
51615;DHT22;37695;52.960;6.188;2022-08-27T05:14:22;12.80;99.90
51615;DHT22;37695;52.960;6.188;2022-08-27T05:16:49;12.80;99.90
51615;DHT22;37695;52.960;6.188;2022-08-27T05:19:15;12.90;99.90
51615;DHT22;37695;52.960;6.188;2022-08-27T05:21:46;12.90;99.90
51615;DHT22;37695;52.960;6.188;2022-08-27T05:24:12;13.00;99.90
51615;DHT22;37695;52.960;6.188;2022-08-27T05:26:38;13.00;99.90
51615;DHT22;37695;52.960;6.188;2022-08-27T05:29:04;13.10;99.90
51615;DHT22;37695;52.960;6.188;2022-08-27T05:31:31;13.20;99.90
51615;DHT22;37695;52.960;6.188;2022-08-27T05:33:58;13.30;99.90
51615;DHT22;37695;52.960;6.188;2022-08-27T05:36:30;13.40;99.90
51615;DHT22;37695;52.960;6.188;2022-08-27T05:38:57;13.40;99.90
51615;DHT22;37695;52.960;6.188;2022-08-27T05:41:26;13.50;99.90
51615;DHT22;37695;52.960;6.188;2022-08-27T05:43:56;13.60;99.90
51615;DHT22;37695;52.960;6.188;2022-08-27T05:46:23;13.70;99.90
51615;DHT22;37695;52.960;6.188;2022-08-27T05:48:50;13.80;99.90
51615;DHT22;37695;52.960;6.188;2022-08-27T05:51:30;13.90;99.90
51615;DHT22;37695;52.960;6.188;2022-08-27T05:54:00;14.00;99.90
51615;DHT22;37695;52.960;6.188;2022-08-27T05:56:28;14.10;99.90
51615;DHT22;37695;52.960;6.188;2022-08-27T05:58:54;14.20;99.90
51615;DHT22;37695;52.960;6.188;2022-08-27T06:01:42;14.30;99.90
51615;DHT22;37695;52.960;6.188;2022-08-27T06:04:08;14.40;99.90
51615;DHT22;37695;52.960;6.188;2022-08-27T06:06:36;14.50;99.90
51615;DHT22;37695;52.960;6.188;2022-08-27T06:09:02;14.60;99.90
51615;DHT22;37695;52.960;6.188;2022-08-27T06:11:28;14.60;99.90
51615;DHT22;37695;52.960;6.188;2022-08-27T06:13:55;14.70;99.90
51615;DHT22;37695;52.960;6.188;2022-08-27T06:16:21;14.80;99.90
51615;DHT22;37695;52.960;6.188;2022-08-27T06:18:48;14.90;99.90
51615;DHT22;37695;52.960;6.188;2022-08-27T06:21:15;15.00;99.90
51615;DHT22;37695;52.960;6.188;2022-08-27T06:23:41;15.10;99.90
51615;DHT22;37695;52.960;6.188;2022-08-27T06:26:09;15.20;99.90
51615;DHT22;37695;52.960;6.188;2022-08-27T06:28:36;15.30;99.90
51615;DHT22;37695;52.960;6.188;2022-08-27T06:31:11;15.40;99.90
51615;DHT22;37695;52.960;6.188;2022-08-27T06:33:38;15.50;99.90
51615;DHT22;37695;52.960;6.188;2022-08-27T06:36:07;15.50;99.90
51615;DHT22;37695;52.960;6.188;2022-08-27T06:38:34;15.70;99.90
51615;DHT22;37695;52.960;6.188;2022-08-27T06:41:01;15.70;99.90
51615;DHT22;37695;52.960;6.188;2022-08-27T06:43:27;15.80;99.90
51615;DHT22;37695;52.960;6.188;2022-08-27T06:45:52;15.90;99.90
51615;DHT22;37695;52.960;6.188;2022-08-27T06:48:18;16.00;99.90
51615;DHT22;37695;52.960;6.188;2022-08-27T06:50:44;16.10;99.90
51615;DHT22;37695;52.960;6.188;2022-08-27T06:53:10;16.10;99.90
51615;DHT22;37695;52.960;6.188;2022-08-27T06:55:44;16.20;99.90
51615;DHT22;37695;52.960;6.188;2022-08-27T06:58:11;16.30;99.90
51615;DHT22;37695;52.960;6.188;2022-08-27T07:00:36;16.40;99.90
51615;DHT22;37695;52.960;6.188;2022-08-27T07:03:02;16.50;99.90
51615;DHT22;37695;52.960;6.188;2022-08-27T07:05:30;16.60;99.90
51615;DHT22;37695;52.960;6.188;2022-08-27T07:07:56;16.70;99.90
51615;DHT22;37695;52.960;6.188;2022-08-27T07:10:22;16.90;99.90
51615;DHT22;37695;52.960;6.188;2022-08-27T07:12:49;17.00;99.90
51615;DHT22;37695;52.960;6.188;2022-08-27T07:15:15;17.00;99.90
51615;DHT22;37695;52.960;6.188;2022-08-27T07:17:40;17.10;99.90
51615;DHT22;37695;52.960;6.188;2022-08-27T07:20:09;17.20;99.90
51615;DHT22;37695;52.960;6.188;2022-08-27T07:22:35;17.20;99.90
51615;DHT22;37695;52.960;6.188;2022-08-27T07:25:00;17.40;99.90
51615;DHT22;37695;52.960;6.188;2022-08-27T07:27:26;17.50;99.90
51615;DHT22;37695;52.960;6.188;2022-08-27T07:29:52;17.50;99.90
51615;DHT22;37695;52.960;6.188;2022-08-27T07:32:17;17.60;99.90
51615;DHT22;37695;52.960;6.188;2022-08-27T07:34:43;17.70;99.90
51615;DHT22;37695;52.960;6.188;2022-08-27T07:37:08;17.80;99.90
51615;DHT22;37695;52.960;6.188;2022-08-27T07:39:34;17.80;99.90
51615;DHT22;37695;52.960;6.188;2022-08-27T07:41:59;17.80;99.90
51615;DHT22;37695;52.960;6.188;2022-08-27T07:44:43;17.90;99.90
51615;DHT22;37695;52.960;6.188;2022-08-27T07:47:09;18.00;99.90
51615;DHT22;37695;52.960;6.188;2022-08-27T07:49:34;18.10;99.90
51615;DHT22;37695;52.960;6.188;2022-08-27T07:52:01;18.10;99.90
51615;DHT22;37695;52.960;6.188;2022-08-27T07:54:27;18.10;99.90
51615;DHT22;37695;52.960;6.188;2022-08-27T07:56:54;18.20;99.90
51615;DHT22;37695;52.960;6.188;2022-08-27T07:59:20;18.20;99.90
51615;DHT22;37695;52.960;6.188;2022-08-27T08:01:45;18.30;99.90
51615;DHT22;37695;52.960;6.188;2022-08-27T08:04:13;18.30;99.90
51615;DHT22;37695;52.960;6.188;2022-08-27T08:06:39;18.40;99.90
51615;DHT22;37695;52.960;6.188;2022-08-27T08:09:05;18.50;99.90
51615;DHT22;37695;52.960;6.188;2022-08-27T08:11:31;18.60;99.90
51615;DHT22;37695;52.960;6.188;2022-08-27T08:13:56;18.70;99.90
51615;DHT22;37695;52.960;6.188;2022-08-27T08:16:23;18.80;99.90
51615;DHT22;37695;52.960;6.188;2022-08-27T08:18:48;18.90;99.90
51615;DHT22;37695;52.960;6.188;2022-08-27T08:21:14;18.90;99.90
51615;DHT22;37695;52.960;6.188;2022-08-27T08:23:40;18.80;99.90
51615;DHT22;37695;52.960;6.188;2022-08-27T08:26:07;18.80;99.90
51615;DHT22;37695;52.960;6.188;2022-08-27T08:28:33;18.90;99.90
51615;DHT22;37695;52.960;6.188;2022-08-27T08:30:59;19.00;99.90
51615;DHT22;37695;52.960;6.188;2022-08-27T08:33:25;18.90;99.90
51615;DHT22;37695;52.960;6.188;2022-08-27T08:35:52;18.90;99.90
51615;DHT22;37695;52.960;6.188;2022-08-27T08:38:19;19.20;99.90
51615;DHT22;37695;52.960;6.188;2022-08-27T08:40:49;19.50;99.90
51615;DHT22;37695;52.960;6.188;2022-08-27T08:43:30;19.70;99.90
51615;DHT22;37695;52.960;6.188;2022-08-27T08:46:02;19.90;99.90
51615;DHT22;37695;52.960;6.188;2022-08-27T08:48:34;20.10;99.90
51615;DHT22;37695;52.960;6.188;2022-08-27T08:51:06;20.30;99.90
51615;DHT22;37695;52.960;6.188;2022-08-27T08:54:15;20.50;99.90
51615;DHT22;37695;52.960;6.188;2022-08-27T08:57:01;20.60;99.90
51615;DHT22;37695;52.960;6.188;2022-08-27T08:59:40;20.70;99.90
51615;DHT22;37695;52.960;6.188;2022-08-27T09:02:09;20.80;99.90
51615;DHT22;37695;52.960;6.188;2022-08-27T09:04:36;21.00;99.90
51615;DHT22;37695;52.960;6.188;2022-08-27T09:09:52;21.10;99.90
51615;DHT22;37695;52.960;6.188;2022-08-27T09:12:25;21.10;99.90
51615;DHT22;37695;52.960;6.188;2022-08-27T09:14:55;21.10;99.90
51615;DHT22;37695;52.960;6.188;2022-08-27T09:17:22;21.00;99.90
51615;DHT22;37695;52.960;6.188;2022-08-27T09:19:48;20.80;99.90
51615;DHT22;37695;52.960;6.188;2022-08-27T09:22:20;20.70;99.90
51615;DHT22;37695;52.960;6.188;2022-08-27T09:27:26;20.50;99.90
51615;DHT22;37695;52.960;6.188;2022-08-27T09:29:54;20.50;99.90
51615;DHT22;37695;52.960;6.188;2022-08-27T09:32:26;20.40;99.90
51615;DHT22;37695;52.960;6.188;2022-08-27T09:34:56;20.40;99.90
51615;DHT22;37695;52.960;6.188;2022-08-27T09:37:26;20.40;99.90
51615;DHT22;37695;52.960;6.188;2022-08-27T09:39:58;20.40;99.90
51615;DHT22;37695;52.960;6.188;2022-08-27T09:42:35;20.60;99.90
51615;DHT22;37695;52.960;6.188;2022-08-27T09:45:10;20.60;99.90
51615;DHT22;37695;52.960;6.188;2022-08-27T09:47:44;20.60;99.90
51615;DHT22;37695;52.960;6.188;2022-08-27T09:50:10;20.40;99.90
51615;DHT22;37695;52.960;6.188;2022-08-27T09:52:50;20.30;99.90
51615;DHT22;37695;52.960;6.188;2022-08-27T09:57:55;20.10;99.90
51615;DHT22;37695;52.960;6.188;2022-08-27T10:02:59;20.00;99.90
51615;DHT22;37695;52.960;6.188;2022-08-27T10:05:36;20.00;99.90
51615;DHT22;37695;52.960;6.188;2022-08-27T10:08:07;19.90;99.90
51615;DHT22;37695;52.960;6.188;2022-08-27T10:10:53;19.90;99.90
51615;DHT22;37695;52.960;6.188;2022-08-27T10:13:36;19.90;99.90
51615;DHT22;37695;52.960;6.188;2022-08-27T10:32:34;20.20;99.90
51615;DHT22;37695;52.960;6.188;2022-08-27T10:35:15;20.30;99.90
51615;DHT22;37695;52.960;6.188;2022-08-27T10:40:35;20.50;99.90
51615;DHT22;37695;52.960;6.188;2022-08-27T10:43:24;20.50;99.90
51615;DHT22;37695;52.960;6.188;2022-08-27T10:48:49;20.70;99.90
51615;DHT22;37695;52.960;6.188;2022-08-27T10:51:25;20.70;99.90
51615;DHT22;37695;52.960;6.188;2022-08-27T10:54:00;20.70;99.90
51615;DHT22;37695;52.960;6.188;2022-08-27T10:56:39;20.70;99.90
51615;DHT22;37695;52.960;6.188;2022-08-27T10:59:41;20.70;99.90
51615;DHT22;37695;52.960;6.188;2022-08-27T11:04:53;20.70;99.90
51615;DHT22;37695;52.960;6.188;2022-08-27T11:07:29;20.70;99.90
51615;DHT22;37695;52.960;6.188;2022-08-27T11:10:13;20.70;99.90
51615;DHT22;37695;52.960;6.188;2022-08-27T11:12:43;20.70;99.90
51615;DHT22;37695;52.960;6.188;2022-08-27T11:15:22;20.80;99.90
51615;DHT22;37695;52.960;6.188;2022-08-27T11:18:18;20.80;99.90
51615;DHT22;37695;52.960;6.188;2022-08-27T11:20:59;21.00;99.90
51615;DHT22;37695;52.960;6.188;2022-08-27T11:26:06;21.00;99.90
51615;DHT22;37695;52.960;6.188;2022-08-27T11:28:43;21.00;99.90
51615;DHT22;37695;52.960;6.188;2022-08-27T11:34:08;21.00;99.90
51615;DHT22;37695;52.960;6.188;2022-08-27T11:37:07;21.10;99.90
51615;DHT22;37695;52.960;6.188;2022-08-27T11:39:55;21.20;99.90
51615;DHT22;37695;52.960;6.188;2022-08-27T11:42:45;21.20;99.90
51615;DHT22;37695;52.960;6.188;2022-08-27T11:45:36;21.20;99.90
51615;DHT22;37695;52.960;6.188;2022-08-27T11:48:28;20.90;99.90
51615;DHT22;37695;52.960;6.188;2022-08-27T11:50:55;21.10;99.90
51615;DHT22;37695;52.960;6.188;2022-08-27T11:53:43;21.10;99.90
51615;DHT22;37695;52.960;6.188;2022-08-27T11:56:40;21.50;99.90
51615;DHT22;37695;52.960;6.188;2022-08-27T11:59:44;21.80;99.90
51615;DHT22;37695;52.960;6.188;2022-08-27T12:02:27;21.70;99.90
51615;DHT22;37695;52.960;6.188;2022-08-27T12:06:03;21.50;99.90
51615;DHT22;37695;52.960;6.188;2022-08-27T12:07:51;21.40;99.90
51615;DHT22;37695;52.960;6.188;2022-08-27T12:10:45;21.80;99.90
51615;DHT22;37695;52.960;6.188;2022-08-27T12:13:20;22.30;99.90
51615;DHT22;37695;52.960;6.188;2022-08-27T12:16:09;22.20;99.90
51615;DHT22;37695;52.960;6.188;2022-08-27T12:19:00;22.30;99.90
51615;DHT22;37695;52.960;6.188;2022-08-27T12:24:16;21.70;99.90
51615;DHT22;37695;52.960;6.188;2022-08-27T12:26:59;21.70;99.90
51615;DHT22;37695;52.960;6.188;2022-08-27T12:29:40;21.70;99.90
51615;DHT22;37695;52.960;6.188;2022-08-27T12:34:47;22.30;99.90
51615;DHT22;37695;52.960;6.188;2022-08-27T12:37:13;22.50;99.90
51615;DHT22;37695;52.960;6.188;2022-08-27T12:39:42;22.50;99.90
51615;DHT22;37695;52.960;6.188;2022-08-27T12:42:14;22.30;99.90
51615;DHT22;37695;52.960;6.188;2022-08-27T12:44:43;22.10;99.90
51615;DHT22;37695;52.960;6.188;2022-08-27T12:47:10;22.00;99.90
51615;DHT22;37695;52.960;6.188;2022-08-27T12:49:56;22.10;99.90
51615;DHT22;37695;52.960;6.188;2022-08-27T12:57:55;22.20;99.90
51615;DHT22;37695;52.960;6.188;2022-08-27T13:00:33;22.00;99.90
51615;DHT22;37695;52.960;6.188;2022-08-27T13:05:42;21.70;99.90
51615;DHT22;37695;52.960;6.188;2022-08-27T13:08:27;21.70;99.90
51615;DHT22;37695;52.960;6.188;2022-08-27T13:10:53;21.90;99.90
51615;DHT22;37695;52.960;6.188;2022-08-27T13:13:23;22.10;99.90
51615;DHT22;37695;52.960;6.188;2022-08-27T13:15:55;22.30;99.90
51615;DHT22;37695;52.960;6.188;2022-08-27T13:18:22;22.60;99.90
51615;DHT22;37695;52.960;6.188;2022-08-27T13:20:50;22.70;99.90
51615;DHT22;37695;52.960;6.188;2022-08-27T13:23:18;22.70;99.90
51615;DHT22;37695;52.960;6.188;2022-08-27T13:26:08;22.70;99.90
51615;DHT22;37695;52.960;6.188;2022-08-27T13:28:36;22.70;99.90
51615;DHT22;37695;52.960;6.188;2022-08-27T13:31:03;22.70;99.90
51615;DHT22;37695;52.960;6.188;2022-08-27T13:33:32;22.50;99.90
51615;DHT22;37695;52.960;6.188;2022-08-27T13:35:59;22.20;99.90
51615;DHT22;37695;52.960;6.188;2022-08-27T13:38:29;22.00;99.90
51615;DHT22;37695;52.960;6.188;2022-08-27T13:43:30;22.20;99.90
51615;DHT22;37695;52.960;6.188;2022-08-27T13:45:57;22.30;99.90
51615;DHT22;37695;52.960;6.188;2022-08-27T13:48:24;22.50;99.90
51615;DHT22;37695;52.960;6.188;2022-08-27T13:50:52;22.70;99.90
51615;DHT22;37695;52.960;6.188;2022-08-27T13:53:22;22.60;99.90
51615;DHT22;37695;52.960;6.188;2022-08-27T13:56:08;22.60;99.90
51615;DHT22;37695;52.960;6.188;2022-08-27T13:58:35;22.60;99.90
51615;DHT22;37695;52.960;6.188;2022-08-27T14:01:13;22.40;99.90
51615;DHT22;37695;52.960;6.188;2022-08-27T14:03:54;22.20;99.90
51615;DHT22;37695;52.960;6.188;2022-08-27T14:06:30;21.80;99.90
51615;DHT22;37695;52.960;6.188;2022-08-27T14:08:57;21.60;99.90
51615;DHT22;37695;52.960;6.188;2022-08-27T14:11:24;21.70;99.90
51615;DHT22;37695;52.960;6.188;2022-08-27T14:13:53;21.70;99.90
51615;DHT22;37695;52.960;6.188;2022-08-27T14:18:52;22.20;99.90
51615;DHT22;37695;52.960;6.188;2022-08-27T14:21:18;22.30;99.90
51615;DHT22;37695;52.960;6.188;2022-08-27T14:23:44;22.30;99.90
51615;DHT22;37695;52.960;6.188;2022-08-27T14:26:09;22.10;99.90
51615;DHT22;37695;52.960;6.188;2022-08-27T14:28:35;22.10;99.90
51615;DHT22;37695;52.960;6.188;2022-08-27T14:31:01;22.00;99.90
51615;DHT22;37695;52.960;6.188;2022-08-27T14:33:27;22.00;99.90
51615;DHT22;37695;52.960;6.188;2022-08-27T14:35:52;22.00;99.90
51615;DHT22;37695;52.960;6.188;2022-08-27T14:38:21;22.00;99.90
51615;DHT22;37695;52.960;6.188;2022-08-27T14:40:52;22.00;99.90
51615;DHT22;37695;52.960;6.188;2022-08-27T14:43:19;22.20;99.90
51615;DHT22;37695;52.960;6.188;2022-08-27T14:45:45;22.30;99.90
51615;DHT22;37695;52.960;6.188;2022-08-27T14:48:15;22.40;99.90
51615;DHT22;37695;52.960;6.188;2022-08-27T14:50:42;22.30;99.90
51615;DHT22;37695;52.960;6.188;2022-08-27T14:53:08;22.10;99.90
51615;DHT22;37695;52.960;6.188;2022-08-27T14:55:33;21.80;99.90
51615;DHT22;37695;52.960;6.188;2022-08-27T14:57:59;21.60;99.90
51615;DHT22;37695;52.960;6.188;2022-08-27T15:00:25;21.50;99.90
51615;DHT22;37695;52.960;6.188;2022-08-27T15:02:51;21.40;99.90
51615;DHT22;37695;52.960;6.188;2022-08-27T15:05:20;21.40;99.90
51615;DHT22;37695;52.960;6.188;2022-08-27T15:07:46;21.50;99.90
51615;DHT22;37695;52.960;6.188;2022-08-27T15:10:12;21.50;99.90
51615;DHT22;37695;52.960;6.188;2022-08-27T15:12:38;21.60;99.90
51615;DHT22;37695;52.960;6.188;2022-08-27T15:15:05;21.50;99.90
51615;DHT22;37695;52.960;6.188;2022-08-27T15:17:31;21.40;99.90
51615;DHT22;37695;52.960;6.188;2022-08-27T15:19:57;21.20;99.90
51615;DHT22;37695;52.960;6.188;2022-08-27T15:22:25;21.20;99.90
51615;DHT22;37695;52.960;6.188;2022-08-27T15:24:56;21.20;99.90
51615;DHT22;37695;52.960;6.188;2022-08-27T15:27:24;21.30;99.90
51615;DHT22;37695;52.960;6.188;2022-08-27T15:29:50;21.30;99.90
51615;DHT22;37695;52.960;6.188;2022-08-27T15:32:32;21.10;99.90
51615;DHT22;37695;52.960;6.188;2022-08-27T15:35:00;21.10;99.90
51615;DHT22;37695;52.960;6.188;2022-08-27T15:37:29;21.00;99.90
51615;DHT22;37695;52.960;6.188;2022-08-27T15:39:55;20.90;99.90
51615;DHT22;37695;52.960;6.188;2022-08-27T15:42:21;20.90;99.90
51615;DHT22;37695;52.960;6.188;2022-08-27T15:44:53;20.90;99.90
51615;DHT22;37695;52.960;6.188;2022-08-27T15:47:20;20.80;99.90
51615;DHT22;37695;52.960;6.188;2022-08-27T15:49:46;20.80;99.90
51615;DHT22;37695;52.960;6.188;2022-08-27T15:52:12;20.80;99.90
51615;DHT22;37695;52.960;6.188;2022-08-27T15:54:39;20.80;99.90
51615;DHT22;37695;52.960;6.188;2022-08-27T15:57:05;20.80;99.90
51615;DHT22;37695;52.960;6.188;2022-08-27T15:59:31;20.80;99.90
51615;DHT22;37695;52.960;6.188;2022-08-27T16:01:58;20.70;99.90
51615;DHT22;37695;52.960;6.188;2022-08-27T16:04:25;20.60;99.90
51615;DHT22;37695;52.960;6.188;2022-08-27T16:06:51;20.60;99.90
51615;DHT22;37695;52.960;6.188;2022-08-27T16:09:17;20.50;99.90
51615;DHT22;37695;52.960;6.188;2022-08-27T16:11:43;20.40;99.90
51615;DHT22;37695;52.960;6.188;2022-08-27T16:14:12;20.30;99.90
51615;DHT22;37695;52.960;6.188;2022-08-27T16:16:38;20.30;99.90
51615;DHT22;37695;52.960;6.188;2022-08-27T16:19:05;20.30;99.90
51615;DHT22;37695;52.960;6.188;2022-08-27T16:21:33;20.20;99.90
51615;DHT22;37695;52.960;6.188;2022-08-27T16:24:04;20.00;99.90
51615;DHT22;37695;52.960;6.188;2022-08-27T16:26:31;20.30;99.90
51615;DHT22;37695;52.960;6.188;2022-08-27T16:28:56;20.30;99.90
51615;DHT22;37695;52.960;6.188;2022-08-27T16:31:22;20.40;99.90
51615;DHT22;37695;52.960;6.188;2022-08-27T16:33:47;20.60;99.90
51615;DHT22;37695;52.960;6.188;2022-08-27T16:36:14;20.90;99.90
51615;DHT22;37695;52.960;6.188;2022-08-27T16:38:39;21.30;99.90
51615;DHT22;37695;52.960;6.188;2022-08-27T16:41:06;21.40;99.90
51615;DHT22;37695;52.960;6.188;2022-08-27T16:43:32;21.40;99.90
51615;DHT22;37695;52.960;6.188;2022-08-27T16:45:59;21.20;99.90
51615;DHT22;37695;52.960;6.188;2022-08-27T16:48:25;21.10;99.90